sensor_id;sensor_type;location;lat;lon;timestamp;pressure;altitude;pressure_sealevel;temperature;humidity
45255;BME280;30989;52.078;21.014;2023-09-12T00:01:06;168498.00;;;18.02;100.00
45255;BME280;30989;52.078;21.014;2023-09-12T00:03:33;168495.31;;;18.01;100.00
45255;BME280;30989;52.078;21.014;2023-09-12T00:06:00;168493.97;;;18.01;100.00
45255;BME280;30989;52.078;21.014;2023-09-12T00:08:26;168489.94;;;17.99;100.00
45255;BME280;30989;52.078;21.014;2023-09-12T00:11:10;168491.28;;;18.00;100.00
45255;BME280;30989;52.078;21.014;2023-09-12T00:13:40;168475.13;;;17.94;100.00
45255;BME280;30989;52.078;21.014;2023-09-12T00:16:06;168468.41;;;17.91;100.00
45255;BME280;30989;52.078;21.014;2023-09-12T00:18:35;168480.50;;;17.96;100.00
45255;BME280;30989;52.078;21.014;2023-09-12T00:21:00;168469.75;;;17.92;100.00
45255;BME280;30989;52.078;21.014;2023-09-12T00:23:26;168464.38;;;17.90;100.00
45255;BME280;30989;52.078;21.014;2023-09-12T00:25:51;168467.06;;;17.91;100.00
45255;BME280;30989;52.078;21.014;2023-09-12T00:28:18;168465.72;;;17.90;100.00
45255;BME280;30989;52.078;21.014;2023-09-12T00:30:43;168463.03;;;17.89;100.00
45255;BME280;30989;52.078;21.014;2023-09-12T00:33:09;168452.28;;;17.85;100.00
45255;BME280;30989;52.078;21.014;2023-09-12T00:35:34;168445.53;;;17.83;100.00
45255;BME280;30989;52.078;21.014;2023-09-12T00:37:59;168437.47;;;17.80;100.00
45255;BME280;30989;52.078;21.014;2023-09-12T00:40:25;168426.72;;;17.76;100.00
45255;BME280;30989;52.078;21.014;2023-09-12T00:42:51;168418.63;;;17.73;100.00
45255;BME280;30989;52.078;21.014;2023-09-12T00:45:16;168409.22;;;17.69;100.00
45255;BME280;30989;52.078;21.014;2023-09-12T00:47:42;168410.56;;;17.69;100.00
45255;BME280;30989;52.078;21.014;2023-09-12T00:50:08;168407.88;;;17.68;100.00
45255;BME280;30989;52.078;21.014;2023-09-12T00:52:36;168398.41;;;17.65;100.00
45255;BME280;30989;52.078;21.014;2023-09-12T00:55:04;168391.69;;;17.62;100.00
45255;BME280;30989;52.078;21.014;2023-09-12T00:57:30;168389.00;;;17.61;100.00
45255;BME280;30989;52.078;21.014;2023-09-12T00:59:56;168375.56;;;17.56;100.00
45255;BME280;30989;52.078;21.014;2023-09-12T01:02:24;168378.25;;;17.57;100.00
45255;BME280;30989;52.078;21.014;2023-09-12T01:04:50;168372.88;;;17.55;100.00
45255;BME280;30989;52.078;21.014;2023-09-12T01:07:16;168370.16;;;17.54;100.00
45255;BME280;30989;52.078;21.014;2023-09-12T01:09:42;168372.88;;;17.55;100.00
45255;BME280;30989;52.078;21.014;2023-09-12T01:12:08;168372.88;;;17.55;100.00
45255;BME280;30989;52.078;21.014;2023-09-12T01:14:33;168370.16;;;17.54;100.00
45255;BME280;30989;52.078;21.014;2023-09-12T01:17:00;168370.16;;;17.54;100.00
45255;BME280;30989;52.078;21.014;2023-09-12T01:19:27;168360.75;;;17.51;100.00
45255;BME280;30989;52.078;21.014;2023-09-12T01:24:52;168386.31;;;17.60;100.00
45255;BME280;30989;52.078;21.014;2023-09-12T01:27:34;168387.66;;;17.61;100.00
45255;BME280;30989;52.078;21.014;2023-09-12T01:30:02;168389.00;;;17.61;100.00
45255;BME280;30989;52.078;21.014;2023-09-12T01:32:31;168375.56;;;17.56;100.00
45255;BME280;30989;52.078;21.014;2023-09-12T01:34:57;168380.94;;;17.58;100.00
45255;BME280;30989;52.078;21.014;2023-09-12T01:37:22;168372.88;;;17.55;100.00
45255;BME280;30989;52.078;21.014;2023-09-12T01:39:48;168351.34;;;17.47;100.00
45255;BME280;30989;52.078;21.014;2023-09-12T01:42:15;168356.72;;;17.49;100.00
45255;BME280;30989;52.078;21.014;2023-09-12T01:44:43;168327.13;;;17.38;100.00
45255;BME280;30989;52.078;21.014;2023-09-12T01:47:10;168324.44;;;17.37;100.00
45255;BME280;30989;52.078;21.014;2023-09-12T01:49:38;168324.44;;;17.37;100.00
45255;BME280;30989;52.078;21.014;2023-09-12T01:52:05;168317.72;;;17.34;100.00
45255;BME280;30989;52.078;21.014;2023-09-12T01:54:32;168309.66;;;17.31;100.00
45255;BME280;30989;52.078;21.014;2023-09-12T01:56:59;168286.78;;;17.23;100.00
45255;BME280;30989;52.078;21.014;2023-09-12T01:59:25;168285.44;;;17.22;100.00
45255;BME280;30989;52.078;21.014;2023-09-12T02:01:51;168276.03;;;17.19;100.00
45255;BME280;30989;52.078;21.014;2023-09-12T02:04:16;168266.63;;;17.15;100.00
45255;BME280;30989;52.078;21.014;2023-09-12T02:06:41;168259.91;;;17.13;100.00
45255;BME280;30989;52.078;21.014;2023-09-12T02:09:07;168253.19;;;17.10;100.00
45255;BME280;30989;52.078;21.014;2023-09-12T02:11:32;168249.13;;;17.08;100.00
45255;BME280;30989;52.078;21.014;2023-09-12T02:13:58;168237.03;;;17.04;100.00
45255;BME280;30989;52.078;21.014;2023-09-12T02:16:23;168235.69;;;17.03;100.00
45255;BME280;30989;52.078;21.014;2023-09-12T02:18:49;168218.22;;;16.97;100.00
45255;BME280;30989;52.078;21.014;2023-09-12T02:21:15;168212.84;;;16.95;100.00
45255;BME280;30989;52.078;21.014;2023-09-12T02:23:43;168214.19;;;16.95;100.00
45255;BME280;30989;52.078;21.014;2023-09-12T02:26:09;168203.44;;;16.91;100.00
45255;BME280;30989;52.078;21.014;2023-09-12T02:28:34;168194.03;;;16.88;100.00
45255;BME280;30989;52.078;21.014;2023-09-12T02:31:00;168176.53;;;16.81;100.00
45255;BME280;30989;52.078;21.014;2023-09-12T02:33:25;168168.47;;;16.78;100.00
45255;BME280;30989;52.078;21.014;2023-09-12T02:35:51;168151.00;;;16.71;100.00
45255;BME280;30989;52.078;21.014;2023-09-12T02:38:17;168149.66;;;16.71;100.00
45255;BME280;30989;52.078;21.014;2023-09-12T02:40:43;168126.75;;;16.62;100.00
45255;BME280;30989;52.078;21.014;2023-09-12T02:43:09;168126.75;;;16.62;100.00
45255;BME280;30989;52.078;21.014;2023-09-12T02:45:34;168111.97;;;16.57;100.00
45255;BME280;30989;52.078;21.014;2023-09-12T02:48:00;168106.59;;;16.55;100.00
45255;BME280;30989;52.078;21.014;2023-09-12T02:50:25;168109.28;;;16.56;100.00
45255;BME280;30989;52.078;21.014;2023-09-12T02:52:50;168101.22;;;16.53;100.00
45255;BME280;30989;52.078;21.014;2023-09-12T02:55:16;168109.28;;;16.56;100.00
45255;BME280;30989;52.078;21.014;2023-09-12T02:57:41;168095.84;;;16.51;100.00
45255;BME280;30989;52.078;21.014;2023-09-12T03:00:07;168082.41;;;16.46;100.00
45255;BME280;30989;52.078;21.014;2023-09-12T03:02:34;168063.56;;;16.38;100.00
45255;BME280;30989;52.078;21.014;2023-09-12T03:05:00;168074.34;;;16.42;100.00
45255;BME280;30989;52.078;21.014;2023-09-12T03:07:27;168067.63;;;16.40;100.00
45255;BME280;30989;52.078;21.014;2023-09-12T03:09:52;168062.25;;;16.38;100.00
45255;BME280;30989;52.078;21.014;2023-09-12T03:12:18;168042.06;;;16.30;100.00
45255;BME280;30989;52.078;21.014;2023-09-12T03:14:43;168024.59;;;16.24;100.00
45255;BME280;30989;52.078;21.014;2023-09-12T03:17:09;168017.88;;;16.21;100.00
45255;BME280;30989;52.078;21.014;2023-09-12T03:19:34;168013.84;;;16.20;100.00
45255;BME280;30989;52.078;21.014;2023-09-12T03:21:59;168007.13;;;16.17;100.00
45255;BME280;30989;52.078;21.014;2023-09-12T03:24:25;167995.03;;;16.13;100.00
45255;BME280;30989;52.078;21.014;2023-09-12T03:26:51;167982.94;;;16.08;100.00
45255;BME280;30989;52.078;21.014;2023-09-12T03:29:16;167970.84;;;16.03;100.00
45255;BME280;30989;52.078;21.014;2023-09-12T03:31:42;167956.06;;;15.98;100.00
45255;BME280;30989;52.078;21.014;2023-09-12T03:34:08;167942.63;;;15.93;100.00
45255;BME280;30989;52.078;21.014;2023-09-12T03:36:33;167923.81;;;15.86;100.00
45255;BME280;30989;52.078;21.014;2023-09-12T03:38:59;167909.03;;;15.80;100.00
45255;BME280;30989;52.078;21.014;2023-09-12T03:41:24;167898.28;;;15.76;100.00
45255;BME280;30989;52.078;21.014;2023-09-12T03:43:54;167864.72;;;15.63;100.00
45255;BME280;30989;52.078;21.014;2023-09-12T03:46:21;167856.66;;;15.60;100.00
45255;BME280;30989;52.078;21.014;2023-09-12T03:48:46;167859.34;;;15.61;100.00
45255;BME280;30989;52.078;21.014;2023-09-12T03:51:12;167849.88;;;15.58;100.00
45255;BME280;30989;52.078;21.014;2023-09-12T03:53:38;167840.44;;;15.54;100.00
45255;BME280;30989;52.078;21.014;2023-09-12T03:56:04;167824.31;;;15.48;100.00
45255;BME280;30989;52.078;21.014;2023-09-12T03:58:29;167824.31;;;15.48;100.00
45255;BME280;30989;52.078;21.014;2023-09-12T04:00:55;167816.25;;;15.45;100.00
45255;BME280;30989;52.078;21.014;2023-09-12T04:03:20;167813.56;;;15.44;100.00
45255;BME280;30989;52.078;21.014;2023-09-12T04:05:46;167839.06;;;15.54;100.00
45255;BME280;30989;52.078;21.014;2023-09-12T04:08:13;167845.78;;;15.56;100.00
45255;BME280;30989;52.078;21.014;2023-09-12T04:10:38;167870.09;;;15.65;100.00
45255;BME280;30989;52.078;21.014;2023-09-12T04:13:04;167872.78;;;15.66;100.00
45255;BME280;30989;52.078;21.014;2023-09-12T04:15:29;167884.84;;;15.71;100.00
45255;BME280;30989;52.078;21.014;2023-09-12T04:17:54;167886.19;;;15.71;100.00
45255;BME280;30989;52.078;21.014;2023-09-12T04:20:20;167900.97;;;15.77;100.00
45255;BME280;30989;52.078;21.014;2023-09-12T04:22:46;167910.38;;;15.81;100.00
45255;BME280;30989;52.078;21.014;2023-09-12T04:25:12;167913.06;;;15.82;100.00
45255;BME280;30989;52.078;21.014;2023-09-12T04:27:37;167925.16;;;15.86;100.00
45255;BME280;30989;52.078;21.014;2023-09-12T04:30:03;167917.09;;;15.83;100.00
45255;BME280;30989;52.078;21.014;2023-09-12T04:32:30;167910.38;;;15.81;100.00
45255;BME280;30989;52.078;21.014;2023-09-12T04:34:55;167896.94;;;15.75;100.00
45255;BME280;30989;52.078;21.014;2023-09-12T04:37:21;167906.34;;;15.79;100.00
45255;BME280;30989;52.078;21.014;2023-09-12T04:39:46;167907.69;;;15.79;100.00
45255;BME280;30989;52.078;21.014;2023-09-12T04:42:12;167905.00;;;15.78;100.00
45255;BME280;30989;52.078;21.014;2023-09-12T04:44:41;167907.69;;;15.79;100.00
45255;BME280;30989;52.078;21.014;2023-09-12T04:47:07;167905.00;;;15.78;100.00
45255;BME280;30989;52.078;21.014;2023-09-12T04:49:33;167913.06;;;15.82;100.00
45255;BME280;30989;52.078;21.014;2023-09-12T04:51:59;167930.53;;;15.88;100.00
45255;BME280;30989;52.078;21.014;2023-09-12T04:54:25;167933.22;;;15.89;100.00
45255;BME280;30989;52.078;21.014;2023-09-12T04:56:50;167949.34;;;15.95;100.00
45255;BME280;30989;52.078;21.014;2023-09-12T04:59:16;167964.13;;;16.01;100.00
45255;BME280;30989;52.078;21.014;2023-09-12T05:01:41;167989.66;;;16.10;100.00
45255;BME280;30989;52.078;21.014;2023-09-12T05:04:07;167995.03;;;16.13;100.00
45255;BME280;30989;52.078;21.014;2023-09-12T05:06:33;168017.88;;;16.21;100.00
45255;BME280;30989;52.078;21.014;2023-09-12T05:08:59;168038.03;;;16.29;100.00
45255;BME280;30989;52.078;21.014;2023-09-12T05:11:25;168064.94;;;16.39;100.00
45255;BME280;30989;52.078;21.014;2023-09-12T05:13:51;168073.00;;;16.42;100.00
45255;BME280;30989;52.078;21.014;2023-09-12T05:16:16;168094.50;;;16.50;100.00
45255;BME280;30989;52.078;21.014;2023-09-12T05:18:42;168116.00;;;16.58;100.00
45255;BME280;30989;52.078;21.014;2023-09-12T05:21:07;168130.78;;;16.64;100.00
45255;BME280;30989;52.078;21.014;2023-09-12T05:23:33;168146.97;;;16.70;100.00
45255;BME280;30989;52.078;21.014;2023-09-12T05:25:58;168164.44;;;16.77;100.00
45255;BME280;30989;52.078;21.014;2023-09-12T05:28:24;168173.84;;;16.80;100.00
45255;BME280;30989;52.078;21.014;2023-09-12T05:30:50;168188.66;;;16.86;100.00
45255;BME280;30989;52.078;21.014;2023-09-12T05:33:16;168198.06;;;16.89;100.00
45255;BME280;30989;52.078;21.014;2023-09-12T05:35:42;168219.56;;;16.97;100.00
45255;BME280;30989;52.078;21.014;2023-09-12T05:38:10;168246.44;;;17.07;100.00
45255;BME280;30989;52.078;21.014;2023-09-12T05:40:35;168284.09;;;17.22;100.00
45255;BME280;30989;52.078;21.014;2023-09-12T05:43:01;168315.03;;;17.33;100.00
45255;BME280;30989;52.078;21.014;2023-09-12T05:45:27;168350.00;;;17.47;100.00
45255;BME280;30989;52.078;21.014;2023-09-12T05:47:54;168389.00;;;17.61;100.00
45255;BME280;30989;52.078;21.014;2023-09-12T05:50:20;168432.09;;;17.78;100.00
45255;BME280;30989;52.078;21.014;2023-09-12T05:52:45;168479.19;;;17.95;100.00
45255;BME280;30989;52.078;21.014;2023-09-12T05:55:12;168514.16;;;18.09;100.00
45255;BME280;30989;52.078;21.014;2023-09-12T05:57:37;168546.44;;;18.21;100.00
45255;BME280;30989;52.078;21.014;2023-09-12T06:00:03;168580.06;;;18.33;100.00
45255;BME280;30989;52.078;21.014;2023-09-12T06:02:38;168602.94;;;18.42;100.00
45255;BME280;30989;52.078;21.014;2023-09-12T06:05:04;168628.50;;;18.52;100.00
45255;BME280;30989;52.078;21.014;2023-09-12T06:07:29;168629.84;;;18.52;100.00
45255;BME280;30989;52.078;21.014;2023-09-12T06:09:55;168650.03;;;18.60;100.00
45255;BME280;30989;52.078;21.014;2023-09-12T06:12:21;168654.13;;;18.61;100.00
45255;BME280;30989;52.078;21.014;2023-09-12T06:14:46;168658.16;;;18.63;100.00
45255;BME280;30989;52.078;21.014;2023-09-12T06:17:11;168679.69;;;18.71;100.00
45255;BME280;30989;52.078;21.014;2023-09-12T06:19:37;168683.75;;;18.73;100.00
45255;BME280;30989;52.078;21.014;2023-09-12T06:22:04;168709.31;;;18.82;100.00
45255;BME280;30989;52.078;21.014;2023-09-12T06:24:30;168725.47;;;18.88;100.00
45255;BME280;30989;52.078;21.014;2023-09-12T06:26:55;168747.00;;;18.96;100.00
45255;BME280;30989;52.078;21.014;2023-09-12T06:29:22;168763.16;;;19.03;100.00
45255;BME280;30989;52.078;21.014;2023-09-12T06:31:48;168792.75;;;19.14;100.00
45255;BME280;30989;52.078;21.014;2023-09-12T06:34:13;168808.91;;;19.20;100.00
45255;BME280;30989;52.078;21.014;2023-09-12T06:36:39;168835.84;;;19.30;100.00
45255;BME280;30989;52.078;21.014;2023-09-12T06:39:06;168854.69;;;19.37;100.00
45255;BME280;30989;52.078;21.014;2023-09-12T06:41:32;168868.16;;;19.42;100.00
45255;BME280;30989;52.078;21.014;2023-09-12T06:43:57;168909.94;;;19.58;100.00
45255;BME280;30989;52.078;21.014;2023-09-12T06:46:24;168946.28;;;19.72;100.00
45255;BME280;30989;52.078;21.014;2023-09-12T06:48:50;168981.31;;;19.85;100.00
45255;BME280;30989;52.078;21.014;2023-09-12T06:51:16;169032.47;;;20.04;100.00
45255;BME280;30989;52.078;21.014;2023-09-12T06:53:42;169070.19;;;20.18;100.00
45255;BME280;30989;52.078;21.014;2023-09-12T06:56:08;169109.25;;;20.33;100.00
45255;BME280;30989;52.078;21.014;2023-09-12T06:58:33;169142.97;;;20.46;100.00
45255;BME280;30989;52.078;21.014;2023-09-12T07:01:03;169172.59;;;20.57;100.00
45255;BME280;30989;52.078;21.014;2023-09-12T07:03:30;169226.50;;;20.77;100.00
45255;BME280;30989;52.078;21.014;2023-09-12T07:05:55;169272.34;;;20.95;100.00
45255;BME280;30989;52.078;21.014;2023-09-12T07:08:21;169302.00;;;21.06;100.00
45255;BME280;30989;52.078;21.014;2023-09-12T07:10:46;169334.34;;;21.18;100.00
45255;BME280;30989;52.078;21.014;2023-09-12T07:13:12;169373.47;;;21.33;100.00
45255;BME280;30989;52.078;21.014;2023-09-12T07:15:37;169399.06;;;21.42;100.00
45255;BME280;30989;52.078;21.014;2023-09-12T07:18:04;169442.19;;;21.59;100.00
45255;BME280;30989;52.078;21.014;2023-09-12T07:20:30;169478.59;;;21.72;100.00
45255;BME280;30989;52.078;21.014;2023-09-12T07:22:56;169515.00;;;21.86;100.00
45255;BME280;30989;52.078;21.014;2023-09-12T07:25:21;169540.59;;;21.96;100.00
45255;BME280;30989;52.078;21.014;2023-09-12T07:27:49;169575.72;;;22.09;100.00
45255;BME280;30989;52.078;21.014;2023-09-12T07:30:15;169582.44;;;22.11;100.00
45255;BME280;30989;52.078;21.014;2023-09-12T07:32:41;169617.50;;;22.25;100.00
45255;BME280;30989;52.078;21.014;2023-09-12T07:35:06;169657.94;;;22.40;100.00
45255;BME280;30989;52.078;21.014;2023-09-12T07:37:32;169675.47;;;22.46;100.00
45255;BME280;30989;52.078;21.014;2023-09-12T07:39:57;169707.84;;;22.59;100.00
45255;BME280;30989;52.078;21.014;2023-09-12T07:42:23;169737.50;;;22.70;100.00
45255;BME280;30989;52.078;21.014;2023-09-12T07:44:49;169763.19;;;22.79;100.00
45255;BME280;30989;52.078;21.014;2023-09-12T07:47:14;169776.69;;;22.85;100.00
45255;BME280;30989;52.078;21.014;2023-09-12T07:49:40;169809.03;;;22.97;100.00
45255;BME280;30989;52.078;21.014;2023-09-12T07:52:05;169844.13;;;23.10;100.00
45255;BME280;30989;52.078;21.014;2023-09-12T07:54:31;169867.03;;;23.19;100.00
45255;BME280;30989;52.078;21.014;2023-09-12T07:56:56;169891.31;;;23.28;100.00
45255;BME280;30989;52.078;21.014;2023-09-12T07:59:22;169912.91;;;23.36;100.00
45255;BME280;30989;52.078;21.014;2023-09-12T08:01:47;169925.06;;;23.40;100.00
45255;BME280;30989;52.078;21.014;2023-09-12T08:04:13;169941.25;;;23.46;100.00
45255;BME280;30989;52.078;21.014;2023-09-12T08:06:40;169973.69;;;23.59;100.00
45255;BME280;30989;52.078;21.014;2023-09-12T08:09:08;170000.66;;;23.69;100.00
45255;BME280;30989;52.078;21.014;2023-09-12T08:11:34;170046.53;;;23.86;100.00
45255;BME280;30989;52.078;21.014;2023-09-12T08:13:59;170084.31;;;24.00;99.99
45255;BME280;30989;52.078;21.014;2023-09-12T08:16:24;170124.81;;;24.16;99.21
45255;BME280;30989;52.078;21.014;2023-09-12T08:18:50;170173.44;;;24.34;98.98
45255;BME280;30989;52.078;21.014;2023-09-12T08:21:15;170220.69;;;24.52;98.24
45255;BME280;30989;52.078;21.014;2023-09-12T08:23:40;170257.13;;;24.65;95.40
45255;BME280;30989;52.078;21.014;2023-09-12T08:26:06;170271.97;;;24.71;94.97
45255;BME280;30989;52.078;21.014;2023-09-12T08:28:32;170320.56;;;24.89;94.27
45255;BME280;30989;52.078;21.014;2023-09-12T08:30:57;170347.63;;;24.99;93.79
45255;BME280;30989;52.078;21.014;2023-09-12T08:33:23;170392.19;;;25.16;93.18
45255;BME280;30989;52.078;21.014;2023-09-12T08:35:49;170435.38;;;25.32;91.72
45255;BME280;30989;52.078;21.014;2023-09-12T08:38:14;170474.56;;;25.47;90.76
45255;BME280;30989;52.078;21.014;2023-09-12T08:40:40;170496.16;;;25.55;88.08
45255;BME280;30989;52.078;21.014;2023-09-12T08:43:06;170524.56;;;25.66;87.00
45255;BME280;30989;52.078;21.014;2023-09-12T08:45:32;170556.97;;;25.78;86.53
45255;BME280;30989;52.078;21.014;2023-09-12T08:48:01;170582.66;;;25.88;85.67
45255;BME280;30989;52.078;21.014;2023-09-12T08:50:28;170592.09;;;25.91;85.04
45255;BME280;30989;52.078;21.014;2023-09-12T08:52:58;170602.91;;;25.95;84.39
45255;BME280;30989;52.078;21.014;2023-09-12T08:55:23;170638.06;;;26.09;81.67
45255;BME280;30989;52.078;21.014;2023-09-12T08:57:50;170662.41;;;26.18;81.65
45255;BME280;30989;52.078;21.014;2023-09-12T09:00:16;170689.41;;;26.28;81.79
45255;BME280;30989;52.078;21.014;2023-09-12T09:02:42;170711.06;;;26.36;80.87
45255;BME280;30989;52.078;21.014;2023-09-12T09:05:08;170739.44;;;26.47;80.77
45255;BME280;30989;52.078;21.014;2023-09-12T09:07:35;170781.34;;;26.62;80.53
45255;BME280;30989;52.078;21.014;2023-09-12T09:10:03;170820.53;;;26.77;79.66
45255;BME280;30989;52.078;21.014;2023-09-12T09:12:30;170832.69;;;26.82;79.00
45255;BME280;30989;52.078;21.014;2023-09-12T09:14:56;170869.16;;;26.95;75.69
45255;BME280;30989;52.078;21.014;2023-09-12T09:17:21;170894.88;;;27.05;76.30
45255;BME280;30989;52.078;21.014;2023-09-12T09:19:48;170903.00;;;27.08;76.03
45255;BME280;30989;52.078;21.014;2023-09-12T09:22:13;170932.72;;;27.19;71.24
45255;BME280;30989;52.078;21.014;2023-09-12T09:24:39;170943.53;;;27.23;69.66
45255;BME280;30989;52.078;21.014;2023-09-12T09:27:04;170970.56;;;27.34;69.79
45255;BME280;30989;52.078;21.014;2023-09-12T09:29:30;170996.25;;;27.43;67.92
45255;BME280;30989;52.078;21.014;2023-09-12T09:31:58;171001.66;;;27.45;66.02
45255;BME280;30989;52.078;21.014;2023-09-12T09:34:25;171008.41;;;27.48;66.87
45255;BME280;30989;52.078;21.014;2023-09-12T09:36:54;171024.63;;;27.54;67.70
45255;BME280;30989;52.078;21.014;2023-09-12T09:39:24;171034.09;;;27.57;66.56
45255;BME280;30989;52.078;21.014;2023-09-12T09:41:54;171049.03;;;27.63;65.69
45255;BME280;30989;52.078;21.014;2023-09-12T09:44:21;171057.13;;;27.66;65.65
45255;BME280;30989;52.078;21.014;2023-09-12T09:46:59;171067.94;;;27.70;65.48
45255;BME280;30989;52.078;21.014;2023-09-12T09:49:28;171067.94;;;27.70;65.54
45255;BME280;30989;52.078;21.014;2023-09-12T09:51:56;171074.72;;;27.73;64.62
45255;BME280;30989;52.078;21.014;2023-09-12T09:54:24;171115.25;;;27.88;64.27
45255;BME280;30989;52.078;21.014;2023-09-12T09:56:53;171149.06;;;28.01;64.91
45255;BME280;30989;52.078;21.014;2023-09-12T09:59:23;171208.59;;;28.23;64.52
45255;BME280;30989;52.078;21.014;2023-09-12T10:01:50;171273.50;;;28.47;62.76
45255;BME280;30989;52.078;21.014;2023-09-12T10:04:18;171324.88;;;28.67;63.12
45255;BME280;30989;52.078;21.014;2023-09-12T10:06:45;171408.78;;;28.98;62.29
45255;BME280;30989;52.078;21.014;2023-09-12T10:09:13;171387.16;;;28.90;58.95
45255;BME280;30989;52.078;21.014;2023-09-12T10:11:40;171373.63;;;28.85;55.90
45255;BME280;30989;52.078;21.014;2023-09-12T10:14:06;171418.25;;;29.02;57.32
45255;BME280;30989;52.078;21.014;2023-09-12T10:16:34;171465.59;;;29.19;58.52
45255;BME280;30989;52.078;21.014;2023-09-12T10:21:49;171674.00;;;29.98;55.93
45255;BME280;30989;52.078;21.014;2023-09-12T10:24:16;171763.38;;;30.31;56.63
45255;BME280;30989;52.078;21.014;2023-09-12T10:26:43;171776.91;;;30.36;49.11
45255;BME280;30989;52.078;21.014;2023-09-12T10:29:13;171743.06;;;30.24;50.88
45255;BME280;30989;52.078;21.014;2023-09-12T10:31:39;171737.66;;;30.22;52.47
45255;BME280;30989;52.078;21.014;2023-09-12T10:34:06;171766.06;;;30.32;52.42
45255;BME280;30989;52.078;21.014;2023-09-12T10:36:37;171835.16;;;30.58;53.09
45255;BME280;30989;52.078;21.014;2023-09-12T10:39:04;171873.03;;;30.72;52.87
45255;BME280;30989;52.078;21.014;2023-09-12T10:41:30;171933.97;;;30.95;51.52
45255;BME280;30989;52.078;21.014;2023-09-12T10:43:57;171985.44;;;31.15;49.11
45255;BME280;30989;52.078;21.014;2023-09-12T10:46:24;171993.56;;;31.18;46.16
45255;BME280;30989;52.078;21.014;2023-09-12T10:48:50;172035.59;;;31.33;47.22
45255;BME280;30989;52.078;21.014;2023-09-12T10:51:16;172082.97;;;31.51;48.40
45255;BME280;30989;52.078;21.014;2023-09-12T10:53:46;172153.44;;;31.78;47.60
45255;BME280;30989;52.078;21.014;2023-09-12T10:56:16;172210.31;;;31.99;48.77
45255;BME280;30989;52.078;21.014;2023-09-12T11:01:33;172424.41;;;32.79;47.90
45255;BME280;30989;52.078;21.014;2023-09-12T11:06:45;172730.75;;;33.94;46.52
45255;BME280;30989;52.078;21.014;2023-09-12T11:11:39;173084.66;;;35.27;42.93
45255;BME280;30989;52.078;21.014;2023-09-12T11:14:05;173201.31;;;35.70;41.21
45255;BME280;30989;52.078;21.014;2023-09-12T11:16:32;173225.72;;;35.79;40.10
45255;BME280;30989;52.078;21.014;2023-09-12T11:19:17;173221.66;;;35.78;39.29
45255;BME280;30989;52.078;21.014;2023-09-12T11:21:49;173304.44;;;36.09;39.96
45255;BME280;30989;52.078;21.014;2023-09-12T11:24:16;173425.25;;;36.54;38.56
45255;BME280;30989;52.078;21.014;2023-09-12T11:27:02;173510.78;;;36.86;38.08
45255;BME280;30989;52.078;21.014;2023-09-12T11:29:39;173582.69;;;37.13;37.59
45255;BME280;30989;52.078;21.014;2023-09-12T11:32:05;173630.22;;;37.31;36.66
45255;BME280;30989;52.078;21.014;2023-09-12T11:34:38;173708.91;;;37.60;37.04
45255;BME280;30989;52.078;21.014;2023-09-12T11:37:05;173841.97;;;38.10;35.77
45255;BME280;30989;52.078;21.014;2023-09-12T11:39:32;173894.94;;;38.30;35.40
45255;BME280;30989;52.078;21.014;2023-09-12T11:41:59;173892.22;;;38.29;34.28
45255;BME280;30989;52.078;21.014;2023-09-12T11:44:26;173808.03;;;37.97;32.56
45255;BME280;30989;52.078;21.014;2023-09-12T11:46:52;173751.03;;;37.76;32.47
45255;BME280;30989;52.078;21.014;2023-09-12T11:49:19;173772.75;;;37.84;32.46
45255;BME280;30989;52.078;21.014;2023-09-12T11:51:53;173675.00;;;37.48;32.21
45255;BME280;30989;52.078;21.014;2023-09-12T11:54:28;173691.28;;;37.54;32.54
45255;BME280;30989;52.078;21.014;2023-09-12T11:56:54;173669.56;;;37.46;31.95
45255;BME280;30989;52.078;21.014;2023-09-12T11:59:25;173723.84;;;37.66;32.77
45255;BME280;30989;52.078;21.014;2023-09-12T12:01:52;173794.47;;;37.92;31.83
45255;BME280;30989;52.078;21.014;2023-09-12T12:04:20;173844.69;;;38.11;32.05
45255;BME280;30989;52.078;21.014;2023-09-12T12:06:47;173672.28;;;37.47;31.63
45255;BME280;30989;52.078;21.014;2023-09-12T12:09:13;173603.03;;;37.21;31.62
45255;BME280;30989;52.078;21.014;2023-09-12T12:11:40;173585.38;;;37.14;32.91
45255;BME280;30989;52.078;21.014;2023-09-12T12:14:17;173460.53;;;36.67;33.02
45255;BME280;30989;52.078;21.014;2023-09-12T12:16:46;173284.09;;;36.01;31.60
45255;BME280;30989;52.078;21.014;2023-09-12T12:19:13;173175.56;;;35.61;32.64
45255;BME280;30989;52.078;21.014;2023-09-12T12:21:40;173049.41;;;35.13;32.30
45255;BME280;30989;52.078;21.014;2023-09-12T12:24:09;172904.28;;;34.59;33.36
45255;BME280;30989;52.078;21.014;2023-09-12T12:26:35;172935.47;;;34.71;33.44
45255;BME280;30989;52.078;21.014;2023-09-12T12:29:01;173090.06;;;35.29;33.02
45255;BME280;30989;52.078;21.014;2023-09-12T12:31:27;173297.66;;;36.06;33.33
45255;BME280;30989;52.078;21.014;2023-09-12T12:33:53;173510.78;;;36.86;32.62
45255;BME280;30989;52.078;21.014;2023-09-12T12:36:19;173703.50;;;37.58;32.74
45255;BME280;30989;52.078;21.014;2023-09-12T12:38:46;173882.72;;;38.25;31.53
45255;BME280;30989;52.078;21.014;2023-09-12T12:41:23;174086.41;;;39.01;32.00
45255;BME280;30989;52.078;21.014;2023-09-12T12:43:51;174090.47;;;39.03;30.65